メインページ
METAR-TAF:

METAR-TAF

空港 :

トロント・ピアソン国際空港

トロント, オンタリオ州, カナダ

緯度: 43-40N, 経度: 079-38W, 海抜: 173m

現時点の気象観測

当レポートは49分前の02:00(UTC)に作成
西の風 11kt
気温 -2°C
湿度 69%
気圧 1023 hPa
視程: 24.1km
高度6000ftの雲は散在している

METAR: CYYZ 070200Z 28011KT 15SM SCT060 M02/M07 A3020 RMK SC3 SLP235

時間: 21:49 (02:49 UTC)

予報

当レポートは9分前の02:40(UTC)に作成
予報は07日の 03時(UTC)から 08日の 06時(UTC)まで有効
西の風 10kt
視程: 10km
高度6000ftの雲は散在している
07日の 03時(UTC)から 07日の 05時(UTC)まで一時的に
高度6000ftの千切れ雲あり
07日の 0500時(UTC)から
西/北西の風 8kt
視程: 10km
高度5000ftの雲は散在している
07日の 07時(UTC)から 07日の 09時(UTC)まで一時的に
高度5000ftの千切れ雲あり
07日の 0900時(UTC)から
西/北西の風 8kt
視程: 10km
高度3000ftの雲は散在している
07日の 09時(UTC)から 07日の 15時(UTC)まで一時的に
高度3000ftの千切れ雲あり
07日の 1500時(UTC)から
西/北西の風 5kt
視程: 10km
高度4000ftの千切れ雲あり
高度10000ftの千切れ雲あり
07日の 16時(UTC)から 07日の 18時(UTC)まで徐々に
南/南西の風 6kt
07日の 2300時(UTC)から
の風 5kt
視程: 10km
高度3000ftの雲はほとんどない

TAF: CYYZ 070240Z 0703/0806 28010KT P6SM SCT060 TEMPO 0703/0705 BKN060 FM070500 30008KT P6SM SCT050 TEMPO 0707/0709 BKN050 FM070900 30008KT P6SM SCT030 TEMPO 0709/0715 BKN030 FM071500 30005KT P6SM BKN040 BKN100 BECMG 0716/0718 20006KT FM072300 19005KT P6SM FEW030 RMK NXT FCST BY 070600Z

4,000以上の空港の気象観測と天気予報(METAR報とTAF報)

利用可能な観測所は地図上に黄色い丸と赤い丸で示す。

丸の上にカーソルを重ねると観測所名を参照できる。

次にクリックすると気象観測と天気予報を参照できる。

マップの切り替え:黒色「×」印の緑ボタンをクリックして拡大、「-」印の緑ボタンをクリックして縮小、緑色の三角印をクリックして隣りの地図に切り替え


METAR-TAF: